sensor_id;sensor_type;location;lat;lon;timestamp;temperature;humidity
4739;DHT22;2383;48.632;10.156;2022-09-29T00:03:44;11.50;99.90
4739;DHT22;2383;48.632;10.156;2022-09-29T00:07:46;12.00;99.90
4739;DHT22;2383;48.632;10.156;2022-09-29T00:11:47;12.20;99.90
4739;DHT22;2383;48.632;10.156;2022-09-29T00:15:57;12.30;99.90
4739;DHT22;2383;48.632;10.156;2022-09-29T00:20:07;11.00;99.90
4739;DHT22;2383;48.632;10.156;2022-09-29T00:24:09;11.20;99.90
4739;DHT22;2383;48.632;10.156;2022-09-29T00:28:11;11.60;99.90
4739;DHT22;2383;48.632;10.156;2022-09-29T00:32:13;12.10;99.90
4739;DHT22;2383;48.632;10.156;2022-09-29T00:36:17;12.10;99.90
4739;DHT22;2383;48.632;10.156;2022-09-29T00:40:19;12.20;99.90
4739;DHT22;2383;48.632;10.156;2022-09-29T00:48:31;12.20;99.90
4739;DHT22;2383;48.632;10.156;2022-09-29T00:52:43;11.80;99.90
4739;DHT22;2383;48.632;10.156;2022-09-29T00:56:48;12.10;99.90
4739;DHT22;2383;48.632;10.156;2022-09-29T01:00:50;11.90;99.90
4739;DHT22;2383;48.632;10.156;2022-09-29T01:04:53;11.70;99.90
4739;DHT22;2383;48.632;10.156;2022-09-29T01:09:02;11.80;99.90
4739;DHT22;2383;48.632;10.156;2022-09-29T01:13:08;12.10;99.90
4739;DHT22;2383;48.632;10.156;2022-09-29T01:17:10;12.20;99.90
4739;DHT22;2383;48.632;10.156;2022-09-29T01:21:35;12.50;99.90
4739;DHT22;2383;48.632;10.156;2022-09-29T01:38:57;13.00;99.90
4739;DHT22;2383;48.632;10.156;2022-09-29T01:43:08;12.90;99.90
4739;DHT22;2383;48.632;10.156;2022-09-29T01:51:21;12.50;99.90
4739;DHT22;2383;48.632;10.156;2022-09-29T01:55:27;12.10;99.90
4739;DHT22;2383;48.632;10.156;2022-09-29T01:59:40;11.50;99.90
4739;DHT22;2383;48.632;10.156;2022-09-29T02:03:53;12.00;99.90
4739;DHT22;2383;48.632;10.156;2022-09-29T02:08:09;11.80;99.90
4739;DHT22;2383;48.632;10.156;2022-09-29T02:12:17;12.40;99.90
4739;DHT22;2383;48.632;10.156;2022-09-29T02:16:23;13.00;99.90
4739;DHT22;2383;48.632;10.156;2022-09-29T02:20:28;12.80;99.90
4739;DHT22;2383;48.632;10.156;2022-09-29T02:24:31;12.10;99.90
4739;DHT22;2383;48.632;10.156;2022-09-29T02:28:33;12.20;99.90
4739;DHT22;2383;48.632;10.156;2022-09-29T02:32:35;12.40;99.90
4739;DHT22;2383;48.632;10.156;2022-09-29T02:54:38;12.40;99.90
4739;DHT22;2383;48.632;10.156;2022-09-29T03:03:29;12.60;99.90
4739;DHT22;2383;48.632;10.156;2022-09-29T03:07:31;12.40;99.90
4739;DHT22;2383;48.632;10.156;2022-09-29T03:11:33;12.10;99.90
4739;DHT22;2383;48.632;10.156;2022-09-29T03:15:34;11.50;99.90
4739;DHT22;2383;48.632;10.156;2022-09-29T03:19:37;12.40;99.90
4739;DHT22;2383;48.632;10.156;2022-09-29T03:23:39;12.80;99.90
4739;DHT22;2383;48.632;10.156;2022-09-29T03:27:41;13.10;99.90
4739;DHT22;2383;48.632;10.156;2022-09-29T03:31:42;12.70;99.90
4739;DHT22;2383;48.632;10.156;2022-09-29T03:35:44;12.30;99.90
4739;DHT22;2383;48.632;10.156;2022-09-29T03:39:46;12.70;99.90
4739;DHT22;2383;48.632;10.156;2022-09-29T03:43:48;12.80;99.90
4739;DHT22;2383;48.632;10.156;2022-09-29T03:47:49;13.10;99.90
4739;DHT22;2383;48.632;10.156;2022-09-29T03:51:51;13.60;99.90
4739;DHT22;2383;48.632;10.156;2022-09-29T03:55:53;13.50;99.90
4739;DHT22;2383;48.632;10.156;2022-09-29T03:59:55;13.40;99.90
4739;DHT22;2383;48.632;10.156;2022-09-29T04:03:57;13.40;99.90
4739;DHT22;2383;48.632;10.156;2022-09-29T04:07:59;13.90;99.90
4739;DHT22;2383;48.632;10.156;2022-09-29T04:12:01;13.80;99.90
4739;DHT22;2383;48.632;10.156;2022-09-29T04:16:05;13.20;99.90
4739;DHT22;2383;48.632;10.156;2022-09-29T04:20:07;12.70;99.90
4739;DHT22;2383;48.632;10.156;2022-09-29T04:24:09;11.90;99.90
4739;DHT22;2383;48.632;10.156;2022-09-29T04:28:12;12.00;99.90
4739;DHT22;2383;48.632;10.156;2022-09-29T04:32:13;12.80;99.90
4739;DHT22;2383;48.632;10.156;2022-09-29T04:36:15;12.90;99.90
4739;DHT22;2383;48.632;10.156;2022-09-29T04:40:17;13.30;99.90
4739;DHT22;2383;48.632;10.156;2022-09-29T04:44:19;13.60;99.90
4739;DHT22;2383;48.632;10.156;2022-09-29T04:48:22;12.90;99.90
4739;DHT22;2383;48.632;10.156;2022-09-29T04:52:25;12.80;99.90
4739;DHT22;2383;48.632;10.156;2022-09-29T04:56:27;12.10;99.90
4739;DHT22;2383;48.632;10.156;2022-09-29T05:00:32;12.70;99.90
4739;DHT22;2383;48.632;10.156;2022-09-29T05:04:36;13.20;99.90
4739;DHT22;2383;48.632;10.156;2022-09-29T05:08:37;12.80;99.90
4739;DHT22;2383;48.632;10.156;2022-09-29T05:12:39;13.10;99.90
4739;DHT22;2383;48.632;10.156;2022-09-29T05:16:41;13.50;99.90
4739;DHT22;2383;48.632;10.156;2022-09-29T05:20:43;13.20;99.90
4739;DHT22;2383;48.632;10.156;2022-09-29T05:25:07;12.80;99.90
4739;DHT22;2383;48.632;10.156;2022-09-29T05:29:09;13.40;99.90
4739;DHT22;2383;48.632;10.156;2022-09-29T05:33:11;13.80;99.90
4739;DHT22;2383;48.632;10.156;2022-09-29T05:37:15;13.70;99.90
4739;DHT22;2383;48.632;10.156;2022-09-29T05:41:18;13.80;99.90
4739;DHT22;2383;48.632;10.156;2022-09-29T05:45:23;13.80;99.90
4739;DHT22;2383;48.632;10.156;2022-09-29T05:49:25;13.40;99.90
4739;DHT22;2383;48.632;10.156;2022-09-29T05:53:27;13.10;99.90
4739;DHT22;2383;48.632;10.156;2022-09-29T05:57:29;13.50;99.90
4739;DHT22;2383;48.632;10.156;2022-09-29T06:01:31;13.90;99.90
4739;DHT22;2383;48.632;10.156;2022-09-29T06:05:37;13.30;99.90
4739;DHT22;2383;48.632;10.156;2022-09-29T06:09:40;13.60;99.90
4739;DHT22;2383;48.632;10.156;2022-09-29T06:13:46;14.10;99.90
4739;DHT22;2383;48.632;10.156;2022-09-29T06:17:54;14.30;99.90
4739;DHT22;2383;48.632;10.156;2022-09-29T06:21:56;13.90;99.90
4739;DHT22;2383;48.632;10.156;2022-09-29T06:25:59;13.60;99.90
4739;DHT22;2383;48.632;10.156;2022-09-29T06:30:02;13.30;99.90
4739;DHT22;2383;48.632;10.156;2022-09-29T06:34:05;13.60;99.90
4739;DHT22;2383;48.632;10.156;2022-09-29T06:38:07;13.00;99.90
4739;DHT22;2383;48.632;10.156;2022-09-29T06:42:08;13.60;99.90
4739;DHT22;2383;48.632;10.156;2022-09-29T06:46:10;14.10;99.90
4739;DHT22;2383;48.632;10.156;2022-09-29T06:50:12;13.70;99.90
4739;DHT22;2383;48.632;10.156;2022-09-29T06:54:20;13.80;99.90
4739;DHT22;2383;48.632;10.156;2022-09-29T06:58:23;13.20;99.90
4739;DHT22;2383;48.632;10.156;2022-09-29T07:02:24;13.30;99.90
4739;DHT22;2383;48.632;10.156;2022-09-29T07:06:27;14.00;99.90
4739;DHT22;2383;48.632;10.156;2022-09-29T07:10:29;13.90;99.90
4739;DHT22;2383;48.632;10.156;2022-09-29T07:14:31;14.00;99.90
4739;DHT22;2383;48.632;10.156;2022-09-29T07:18:34;14.20;99.90
4739;DHT22;2383;48.632;10.156;2022-09-29T07:22:38;14.00;99.90
4739;DHT22;2383;48.632;10.156;2022-09-29T07:26:39;13.30;99.90
4739;DHT22;2383;48.632;10.156;2022-09-29T07:30:41;13.50;99.90
4739;DHT22;2383;48.632;10.156;2022-09-29T07:34:43;13.00;99.90
4739;DHT22;2383;48.632;10.156;2022-09-29T07:38:46;13.90;99.90
4739;DHT22;2383;48.632;10.156;2022-09-29T07:42:49;13.90;99.90
4739;DHT22;2383;48.632;10.156;2022-09-29T07:46:51;14.20;99.90
4739;DHT22;2383;48.632;10.156;2022-09-29T07:55:04;15.10;99.90
4739;DHT22;2383;48.632;10.156;2022-09-29T07:59:06;14.80;99.90
4739;DHT22;2383;48.632;10.156;2022-09-29T08:03:09;14.80;99.90
4739;DHT22;2383;48.632;10.156;2022-09-29T08:07:11;15.20;99.90
4739;DHT22;2383;48.632;10.156;2022-09-29T08:11:16;15.30;99.90
4739;DHT22;2383;48.632;10.156;2022-09-29T08:15:31;14.60;99.90
4739;DHT22;2383;48.632;10.156;2022-09-29T08:19:33;14.70;99.90
4739;DHT22;2383;48.632;10.156;2022-09-29T08:23:39;15.10;99.90
4739;DHT22;2383;48.632;10.156;2022-09-29T08:27:41;14.30;99.90
4739;DHT22;2383;48.632;10.156;2022-09-29T08:31:54;14.20;99.90
4739;DHT22;2383;48.632;10.156;2022-09-29T08:35:58;14.20;99.90
4739;DHT22;2383;48.632;10.156;2022-09-29T08:40:00;14.10;99.90
4739;DHT22;2383;48.632;10.156;2022-09-29T08:44:06;14.70;99.90
4739;DHT22;2383;48.632;10.156;2022-09-29T08:48:34;14.90;99.90
4739;DHT22;2383;48.632;10.156;2022-09-29T08:52:43;15.00;99.90
4739;DHT22;2383;48.632;10.156;2022-09-29T08:56:53;15.30;99.90
4739;DHT22;2383;48.632;10.156;2022-09-29T09:13:48;15.40;99.90
4739;DHT22;2383;48.632;10.156;2022-09-29T09:26:45;16.20;99.90
4739;DHT22;2383;48.632;10.156;2022-09-29T09:31:20;16.20;99.90
4739;DHT22;2383;48.632;10.156;2022-09-29T09:35:37;16.50;99.90
4739;DHT22;2383;48.632;10.156;2022-09-29T09:40:15;16.20;99.90
4739;DHT22;2383;48.632;10.156;2022-09-29T09:44:46;16.70;99.90
4739;DHT22;2383;48.632;10.156;2022-09-29T09:48:57;16.80;99.90
4739;DHT22;2383;48.632;10.156;2022-09-29T09:53:09;16.70;99.90
4739;DHT22;2383;48.632;10.156;2022-09-29T10:01:32;16.70;99.90
4739;DHT22;2383;48.632;10.156;2022-09-29T10:05:45;16.50;99.90
4739;DHT22;2383;48.632;10.156;2022-09-29T10:09:47;16.20;99.90
4739;DHT22;2383;48.632;10.156;2022-09-29T10:14:11;15.70;99.60
4739;DHT22;2383;48.632;10.156;2022-09-29T10:18:21;16.10;99.90
4739;DHT22;2383;48.632;10.156;2022-09-29T10:22:25;16.70;99.90
4739;DHT22;2383;48.632;10.156;2022-09-29T10:26:43;16.70;99.90
4739;DHT22;2383;48.632;10.156;2022-09-29T10:30:45;16.90;99.40
4739;DHT22;2383;48.632;10.156;2022-09-29T10:34:52;16.80;99.50
4739;DHT22;2383;48.632;10.156;2022-09-29T10:38:57;17.00;99.90
4739;DHT22;2383;48.632;10.156;2022-09-29T10:43:25;17.10;99.10
4739;DHT22;2383;48.632;10.156;2022-09-29T10:47:27;17.40;98.50
4739;DHT22;2383;48.632;10.156;2022-09-29T10:51:29;17.60;98.80
4739;DHT22;2383;48.632;10.156;2022-09-29T10:55:35;17.50;98.80
4739;DHT22;2383;48.632;10.156;2022-09-29T10:59:49;17.70;97.80
4739;DHT22;2383;48.632;10.156;2022-09-29T11:04:03;17.70;97.90
4739;DHT22;2383;48.632;10.156;2022-09-29T11:08:10;17.90;97.90
4739;DHT22;2383;48.632;10.156;2022-09-29T11:16:35;16.90;97.70
4739;DHT22;2383;48.632;10.156;2022-09-29T11:20:37;17.20;97.70
4739;DHT22;2383;48.632;10.156;2022-09-29T11:29:47;16.70;97.00
4739;DHT22;2383;48.632;10.156;2022-09-29T11:59:54;17.30;97.50
4739;DHT22;2383;48.632;10.156;2022-09-29T12:17:01;17.40;97.00
4739;DHT22;2383;48.632;10.156;2022-09-29T12:21:07;17.50;96.10
4739;DHT22;2383;48.632;10.156;2022-09-29T12:25:22;17.50;97.10
4739;DHT22;2383;48.632;10.156;2022-09-29T12:29:42;17.90;96.80
4739;DHT22;2383;48.632;10.156;2022-09-29T12:34:20;17.60;96.10
4739;DHT22;2383;48.632;10.156;2022-09-29T12:51:46;17.60;96.70
4739;DHT22;2383;48.632;10.156;2022-09-29T13:00:10;17.60;95.70
4739;DHT22;2383;48.632;10.156;2022-09-29T13:22:41;16.90;95.10
4739;DHT22;2383;48.632;10.156;2022-09-29T13:31:19;17.50;95.30
4739;DHT22;2383;48.632;10.156;2022-09-29T13:35:23;17.30;94.90
4739;DHT22;2383;48.632;10.156;2022-09-29T13:39:28;17.10;95.60
4739;DHT22;2383;48.632;10.156;2022-09-29T14:00:15;18.30;95.40
4739;DHT22;2383;48.632;10.156;2022-09-29T14:09:05;18.40;95.40
4739;DHT22;2383;48.632;10.156;2022-09-29T14:13:28;18.10;95.30
4739;DHT22;2383;48.632;10.156;2022-09-29T14:17:42;18.20;95.90
4739;DHT22;2383;48.632;10.156;2022-09-29T14:21:49;17.90;96.10
4739;DHT22;2383;48.632;10.156;2022-09-29T14:25:53;18.10;95.90
4739;DHT22;2383;48.632;10.156;2022-09-29T14:30:09;18.40;95.90
4739;DHT22;2383;48.632;10.156;2022-09-29T14:34:18;18.60;95.40
4739;DHT22;2383;48.632;10.156;2022-09-29T14:39:03;18.00;95.40
4739;DHT22;2383;48.632;10.156;2022-09-29T14:43:17;18.40;95.40
4739;DHT22;2383;48.632;10.156;2022-09-29T14:47:54;18.80;95.30
4739;DHT22;2383;48.632;10.156;2022-09-29T15:05:22;17.60;97.80
4739;DHT22;2383;48.632;10.156;2022-09-29T15:09:35;17.50;97.80
4739;DHT22;2383;48.632;10.156;2022-09-29T15:13:37;17.60;97.40
4739;DHT22;2383;48.632;10.156;2022-09-29T15:26:26;16.90;98.40
4739;DHT22;2383;48.632;10.156;2022-09-29T15:30:31;17.20;98.30
4739;DHT22;2383;48.632;10.156;2022-09-29T15:34:37;17.60;97.40
4739;DHT22;2383;48.632;10.156;2022-09-29T15:38:39;17.70;97.40
4739;DHT22;2383;48.632;10.156;2022-09-29T15:42:41;17.90;96.90
4739;DHT22;2383;48.632;10.156;2022-09-29T15:46:48;18.10;96.90
4739;DHT22;2383;48.632;10.156;2022-09-29T15:50:51;17.50;97.80
4739;DHT22;2383;48.632;10.156;2022-09-29T15:54:57;17.30;98.00
4739;DHT22;2383;48.632;10.156;2022-09-29T15:58:59;17.60;97.50
4739;DHT22;2383;48.632;10.156;2022-09-29T16:03:09;17.90;97.30
4739;DHT22;2383;48.632;10.156;2022-09-29T16:07:28;17.60;97.30
4739;DHT22;2383;48.632;10.156;2022-09-29T16:11:33;17.80;97.40
4739;DHT22;2383;48.632;10.156;2022-09-29T16:15:42;17.90;97.40
4739;DHT22;2383;48.632;10.156;2022-09-29T16:19:46;18.20;97.60
4739;DHT22;2383;48.632;10.156;2022-09-29T16:24:15;17.80;97.50
4739;DHT22;2383;48.632;10.156;2022-09-29T16:28:25;17.90;97.40
4739;DHT22;2383;48.632;10.156;2022-09-29T16:36:40;17.60;97.80
4739;DHT22;2383;48.632;10.156;2022-09-29T16:40:49;17.60;98.10
4739;DHT22;2383;48.632;10.156;2022-09-29T16:44:53;17.60;98.50
4739;DHT22;2383;48.632;10.156;2022-09-29T16:48:56;17.60;98.50
4739;DHT22;2383;48.632;10.156;2022-09-29T16:52:58;17.80;98.50
4739;DHT22;2383;48.632;10.156;2022-09-29T16:57:28;17.60;98.00
4739;DHT22;2383;48.632;10.156;2022-09-29T17:01:31;17.40;98.00
4739;DHT22;2383;48.632;10.156;2022-09-29T17:05:36;17.30;98.00
4739;DHT22;2383;48.632;10.156;2022-09-29T17:09:38;17.20;98.20
4739;DHT22;2383;48.632;10.156;2022-09-29T17:13:41;17.60;98.20
4739;DHT22;2383;48.632;10.156;2022-09-29T17:17:47;17.20;98.30
4739;DHT22;2383;48.632;10.156;2022-09-29T17:21:49;17.20;98.60
4739;DHT22;2383;48.632;10.156;2022-09-29T17:25:52;17.20;98.50
4739;DHT22;2383;48.632;10.156;2022-09-29T17:30:17;17.30;98.60
4739;DHT22;2383;48.632;10.156;2022-09-29T17:34:21;17.20;98.70
4739;DHT22;2383;48.632;10.156;2022-09-29T17:38:29;17.10;98.80
4739;DHT22;2383;48.632;10.156;2022-09-29T17:42:32;17.00;99.30
4739;DHT22;2383;48.632;10.156;2022-09-29T17:46:36;16.80;99.30
4739;DHT22;2383;48.632;10.156;2022-09-29T17:54:41;16.50;99.70
4739;DHT22;2383;48.632;10.156;2022-09-29T17:58:43;16.50;99.90
4739;DHT22;2383;48.632;10.156;2022-09-29T18:02:45;16.60;99.90
4739;DHT22;2383;48.632;10.156;2022-09-29T18:06:47;16.70;99.90
4739;DHT22;2383;48.632;10.156;2022-09-29T18:10:52;16.60;99.80
4739;DHT22;2383;48.632;10.156;2022-09-29T18:14:54;16.60;99.90
4739;DHT22;2383;48.632;10.156;2022-09-29T18:18:56;16.70;99.90
4739;DHT22;2383;48.632;10.156;2022-09-29T18:22:59;16.60;99.90
4739;DHT22;2383;48.632;10.156;2022-09-29T18:27:01;16.50;99.90
4739;DHT22;2383;48.632;10.156;2022-09-29T18:31:12;16.60;99.90
4739;DHT22;2383;48.632;10.156;2022-09-29T18:35:20;16.80;99.90
4739;DHT22;2383;48.632;10.156;2022-09-29T18:39:22;16.60;99.90
4739;DHT22;2383;48.632;10.156;2022-09-29T18:43:24;16.50;99.90
4739;DHT22;2383;48.632;10.156;2022-09-29T18:47:27;15.80;99.90
4739;DHT22;2383;48.632;10.156;2022-09-29T18:51:29;15.20;99.90
4739;DHT22;2383;48.632;10.156;2022-09-29T18:55:39;15.60;99.90
4739;DHT22;2383;48.632;10.156;2022-09-29T18:59:44;15.90;99.90
4739;DHT22;2383;48.632;10.156;2022-09-29T19:03:46;15.90;99.90
4739;DHT22;2383;48.632;10.156;2022-09-29T19:07:55;15.80;99.90
4739;DHT22;2383;48.632;10.156;2022-09-29T19:11:59;15.20;99.90
4739;DHT22;2383;48.632;10.156;2022-09-29T19:16:00;14.90;99.90
4739;DHT22;2383;48.632;10.156;2022-09-29T19:20:04;15.20;99.90
4739;DHT22;2383;48.632;10.156;2022-09-29T19:24:06;15.10;99.90
4739;DHT22;2383;48.632;10.156;2022-09-29T19:28:08;15.60;99.90
4739;DHT22;2383;48.632;10.156;2022-09-29T19:32:10;15.20;99.90
4739;DHT22;2383;48.632;10.156;2022-09-29T19:36:19;15.20;99.90
4739;DHT22;2383;48.632;10.156;2022-09-29T19:40:23;15.40;99.90
4739;DHT22;2383;48.632;10.156;2022-09-29T19:44:25;15.40;99.90
4739;DHT22;2383;48.632;10.156;2022-09-29T19:48:29;15.60;99.90
4739;DHT22;2383;48.632;10.156;2022-09-29T19:52:31;15.40;99.90
4739;DHT22;2383;48.632;10.156;2022-09-29T19:56:38;14.80;99.90
4739;DHT22;2383;48.632;10.156;2022-09-29T20:00:40;13.50;99.90
4739;DHT22;2383;48.632;10.156;2022-09-29T20:04:42;13.80;99.90
4739;DHT22;2383;48.632;10.156;2022-09-29T20:08:44;14.30;99.90
4739;DHT22;2383;48.632;10.156;2022-09-29T20:12:46;14.50;99.90
4739;DHT22;2383;48.632;10.156;2022-09-29T20:16:50;14.90;99.90
4739;DHT22;2383;48.632;10.156;2022-09-29T20:20:52;15.10;99.90
4739;DHT22;2383;48.632;10.156;2022-09-29T20:24:54;14.10;99.90
4739;DHT22;2383;48.632;10.156;2022-09-29T20:28:56;13.60;99.90
4739;DHT22;2383;48.632;10.156;2022-09-29T20:33:04;13.40;99.90
4739;DHT22;2383;48.632;10.156;2022-09-29T20:37:06;13.70;99.90
4739;DHT22;2383;48.632;10.156;2022-09-29T20:41:09;13.70;99.90
4739;DHT22;2383;48.632;10.156;2022-09-29T20:45:11;13.90;99.90
4739;DHT22;2383;48.632;10.156;2022-09-29T20:49:12;14.50;99.90
4739;DHT22;2383;48.632;10.156;2022-09-29T20:53:14;14.50;99.90
4739;DHT22;2383;48.632;10.156;2022-09-29T20:57:16;14.90;99.90
4739;DHT22;2383;48.632;10.156;2022-09-29T21:01:19;14.70;99.90
4739;DHT22;2383;48.632;10.156;2022-09-29T21:05:23;14.50;99.90
4739;DHT22;2383;48.632;10.156;2022-09-29T21:09:25;14.70;99.90
4739;DHT22;2383;48.632;10.156;2022-09-29T21:13:28;14.60;99.90
4739;DHT22;2383;48.632;10.156;2022-09-29T21:17:30;14.60;99.90
4739;DHT22;2383;48.632;10.156;2022-09-29T21:21:31;14.50;99.90
4739;DHT22;2383;48.632;10.156;2022-09-29T21:25:33;14.50;99.90
4739;DHT22;2383;48.632;10.156;2022-09-29T21:29:35;14.40;99.90
4739;DHT22;2383;48.632;10.156;2022-09-29T21:33:38;14.20;99.90
4739;DHT22;2383;48.632;10.156;2022-09-29T21:37:41;13.50;99.90
4739;DHT22;2383;48.632;10.156;2022-09-29T21:41:44;13.30;99.90
4739;DHT22;2383;48.632;10.156;2022-09-29T21:45:46;14.00;99.90
4739;DHT22;2383;48.632;10.156;2022-09-29T21:49:47;14.40;99.90
4739;DHT22;2383;48.632;10.156;2022-09-29T21:53:51;14.30;99.90
4739;DHT22;2383;48.632;10.156;2022-09-29T21:57:53;14.20;99.90
4739;DHT22;2383;48.632;10.156;2022-09-29T22:01:55;14.00;99.90
4739;DHT22;2383;48.632;10.156;2022-09-29T22:05:57;13.20;99.90
4739;DHT22;2383;48.632;10.156;2022-09-29T22:10:01;13.20;99.90
4739;DHT22;2383;48.632;10.156;2022-09-29T22:14:03;13.60;99.90
4739;DHT22;2383;48.632;10.156;2022-09-29T22:18:05;14.20;99.90
4739;DHT22;2383;48.632;10.156;2022-09-29T22:22:06;13.60;99.90
4739;DHT22;2383;48.632;10.156;2022-09-29T22:26:10;13.10;99.90
4739;DHT22;2383;48.632;10.156;2022-09-29T22:30:13;13.30;99.90
4739;DHT22;2383;48.632;10.156;2022-09-29T22:34:14;13.40;99.90
4739;DHT22;2383;48.632;10.156;2022-09-29T22:38:16;13.70;99.90
4739;DHT22;2383;48.632;10.156;2022-09-29T22:42:18;14.10;99.90
4739;DHT22;2383;48.632;10.156;2022-09-29T22:46:21;14.40;99.90
4739;DHT22;2383;48.632;10.156;2022-09-29T22:50:25;14.10;99.90
4739;DHT22;2383;48.632;10.156;2022-09-29T22:54:27;14.20;99.90
4739;DHT22;2383;48.632;10.156;2022-09-29T22:58:29;14.20;99.90
4739;DHT22;2383;48.632;10.156;2022-09-29T23:02:30;14.30;99.90
4739;DHT22;2383;48.632;10.156;2022-09-29T23:06:33;14.00;99.90
4739;DHT22;2383;48.632;10.156;2022-09-29T23:10:35;13.70;99.90
4739;DHT22;2383;48.632;10.156;2022-09-29T23:14:37;13.90;99.90
4739;DHT22;2383;48.632;10.156;2022-09-29T23:18:40;13.80;99.90
4739;DHT22;2383;48.632;10.156;2022-09-29T23:22:45;13.90;99.90
4739;DHT22;2383;48.632;10.156;2022-09-29T23:26:47;12.80;99.90
4739;DHT22;2383;48.632;10.156;2022-09-29T23:30:50;12.80;99.90
4739;DHT22;2383;48.632;10.156;2022-09-29T23:34:52;13.20;99.90
4739;DHT22;2383;48.632;10.156;2022-09-29T23:38:53;12.60;99.90
4739;DHT22;2383;48.632;10.156;2022-09-29T23:43:11;12.70;99.90
4739;DHT22;2383;48.632;10.156;2022-09-29T23:47:12;13.40;99.90
4739;DHT22;2383;48.632;10.156;2022-09-29T23:51:14;13.70;99.90
4739;DHT22;2383;48.632;10.156;2022-09-29T23:55:16;14.10;99.90
4739;DHT22;2383;48.632;10.156;2022-09-29T23:59:18;13.80;99.90
